sensor_id;sensor_type;location;lat;lon;timestamp;pressure;altitude;pressure_sealevel;temperature;humidity
73338;BME280;61575;49.908;35.556;2024-03-08T00:00:28;99873.31;;;-1.28;68.23
73338;BME280;61575;49.908;35.556;2024-03-08T00:03:30;99872.56;;;-1.30;68.51
73338;BME280;61575;49.908;35.556;2024-03-08T00:06:32;99864.47;;;-1.27;68.33
73338;BME280;61575;49.908;35.556;2024-03-08T00:09:35;99869.75;;;-1.27;68.51
73338;BME280;61575;49.908;35.556;2024-03-08T00:12:44;99875.19;;;-1.30;68.93
73338;BME280;61575;49.908;35.556;2024-03-08T00:15:47;99871.03;;;-1.34;69.04
73338;BME280;61575;49.908;35.556;2024-03-08T00:18:49;99872.56;;;-1.30;69.15
73338;BME280;61575;49.908;35.556;2024-03-08T00:21:51;99864.41;;;-1.41;69.40
73338;BME280;61575;49.908;35.556;2024-03-08T00:24:53;99859.06;;;-1.40;69.46
73338;BME280;61575;49.908;35.556;2024-03-08T00:27:55;99852.19;;;-1.42;69.84
73338;BME280;61575;49.908;35.556;2024-03-08T00:30:57;99855.41;;;-1.37;69.57
73338;BME280;61575;49.908;35.556;2024-03-08T00:33:59;99850.38;;;-1.42;69.73
73338;BME280;61575;49.908;35.556;2024-03-08T00:37:02;99842.66;;;-1.45;70.02
73338;BME280;61575;49.908;35.556;2024-03-08T00:40:06;99848.44;;;-1.38;69.55
73338;BME280;61575;49.908;35.556;2024-03-08T00:43:09;99843.94;;;-1.36;69.70
73338;BME280;61575;49.908;35.556;2024-03-08T00:46:11;99841.97;;;-1.49;70.01
73338;BME280;61575;49.908;35.556;2024-03-08T00:49:13;99837.91;;;-1.38;70.42
73338;BME280;61575;49.908;35.556;2024-03-08T00:52:15;99845.53;;;-1.34;69.82
73338;BME280;61575;49.908;35.556;2024-03-08T00:55:20;99837.47;;;-1.31;69.66
73338;BME280;61575;49.908;35.556;2024-03-08T00:58:22;99837.28;;;-1.28;69.64
73338;BME280;61575;49.908;35.556;2024-03-08T01:01:25;99840.00;;;-1.29;69.70
73338;BME280;61575;49.908;35.556;2024-03-08T01:04:28;99833.72;;;-1.27;69.46
73338;BME280;61575;49.908;35.556;2024-03-08T01:07:34;99836.63;;;-1.31;69.17
73338;BME280;61575;49.908;35.556;2024-03-08T01:10:37;99825.06;;;-1.29;69.00
73338;BME280;61575;49.908;35.556;2024-03-08T01:13:39;99823.00;;;-1.24;69.01
73338;BME280;61575;49.908;35.556;2024-03-08T01:16:41;99819.34;;;-1.21;69.11
73338;BME280;61575;49.908;35.556;2024-03-08T01:19:43;99823.69;;;-1.20;68.91
73338;BME280;61575;49.908;35.556;2024-03-08T01:22:46;99818.22;;;-1.17;69.16
73338;BME280;61575;49.908;35.556;2024-03-08T01:25:48;99818.13;;;-1.16;69.05
73338;BME280;61575;49.908;35.556;2024-03-08T01:28:58;99819.00;;;-1.15;69.16
73338;BME280;61575;49.908;35.556;2024-03-08T01:32:00;99820.94;;;-1.19;69.57
73338;BME280;61575;49.908;35.556;2024-03-08T01:35:04;99817.56;;;-1.21;69.29
73338;BME280;61575;49.908;35.556;2024-03-08T01:38:06;99816.44;;;-1.17;69.48
73338;BME280;61575;49.908;35.556;2024-03-08T01:41:08;99813.72;;;-1.15;69.50
73338;BME280;61575;49.908;35.556;2024-03-08T01:44:10;99809.38;;;-1.16;69.38
73338;BME280;61575;49.908;35.556;2024-03-08T01:47:12;99807.69;;;-1.17;69.38
73338;BME280;61575;49.908;35.556;2024-03-08T01:50:15;99807.69;;;-1.17;69.39
73338;BME280;61575;49.908;35.556;2024-03-08T01:53:18;99810.16;;;-1.14;69.39
73338;BME280;61575;49.908;35.556;2024-03-08T01:56:20;99805.81;;;-1.15;69.60
73338;BME280;61575;49.908;35.556;2024-03-08T01:59:23;99803.94;;;-1.13;68.96
73338;BME280;61575;49.908;35.556;2024-03-08T02:02:25;99806.75;;;-1.16;68.99
73338;BME280;61575;49.908;35.556;2024-03-08T02:05:29;99803.94;;;-1.13;69.17
73338;BME280;61575;49.908;35.556;2024-03-08T02:08:31;99809.03;;;-1.10;69.70
73338;BME280;61575;49.908;35.556;2024-03-08T02:11:34;99810.06;;;-1.13;69.45
73338;BME280;61575;49.908;35.556;2024-03-08T02:14:38;99803.00;;;-1.12;69.64
73338;BME280;61575;49.908;35.556;2024-03-08T02:17:42;99809.22;;;-1.13;69.53
73338;BME280;61575;49.908;35.556;2024-03-08T02:20:55;99809.03;;;-1.10;69.22
73338;BME280;61575;49.908;35.556;2024-03-08T02:23:58;99813.63;;;-1.14;69.15
73338;BME280;61575;49.908;35.556;2024-03-08T02:27:01;99801.84;;;-1.22;69.27
73338;BME280;61575;49.908;35.556;2024-03-08T02:30:03;99799.19;;;-1.22;69.14
73338;BME280;61575;49.908;35.556;2024-03-08T02:33:07;99804.47;;;-1.22;69.72
73338;BME280;61575;49.908;35.556;2024-03-08T02:36:11;99797.50;;;-1.23;69.40
73338;BME280;61575;49.908;35.556;2024-03-08T02:39:14;99798.25;;;-1.21;69.52
73338;BME280;61575;49.908;35.556;2024-03-08T02:42:16;99792.22;;;-1.23;69.50
73338;BME280;61575;49.908;35.556;2024-03-08T02:45:19;99791.56;;;-1.27;69.98
73338;BME280;61575;49.908;35.556;2024-03-08T02:48:22;99787.72;;;-1.21;69.58
73338;BME280;61575;49.908;35.556;2024-03-08T02:51:25;99784.25;;;-1.22;69.31
73338;BME280;61575;49.908;35.556;2024-03-08T02:54:28;99791.13;;;-1.19;69.26
73338;BME280;61575;49.908;35.556;2024-03-08T02:57:30;99784.25;;;-1.22;68.89
73338;BME280;61575;49.908;35.556;2024-03-08T03:00:32;99784.59;;;-1.28;68.64
73338;BME280;61575;49.908;35.556;2024-03-08T03:03:34;99778.47;;;-1.28;69.09
73338;BME280;61575;49.908;35.556;2024-03-08T03:06:36;99773.03;;;-1.25;69.50
73338;BME280;61575;49.908;35.556;2024-03-08T03:09:38;99777.44;;;-1.26;69.35
73338;BME280;61575;49.908;35.556;2024-03-08T03:12:40;99774.81;;;-1.26;69.09
73338;BME280;61575;49.908;35.556;2024-03-08T03:15:42;99773.22;;;-1.28;69.15
73338;BME280;61575;49.908;35.556;2024-03-08T03:18:44;99764.63;;;-1.32;68.90
73338;BME280;61575;49.908;35.556;2024-03-08T03:21:47;99766.09;;;-1.42;69.14
73338;BME280;61575;49.908;35.556;2024-03-08T03:24:49;99754.72;;;-1.42;69.21
73338;BME280;61575;49.908;35.556;2024-03-08T03:27:53;99762.97;;;-1.49;68.15
73338;BME280;61575;49.908;35.556;2024-03-08T03:30:58;99762.88;;;-1.47;68.09
73338;BME280;61575;49.908;35.556;2024-03-08T03:34:01;99755.91;;;-1.48;67.92
73338;BME280;61575;49.908;35.556;2024-03-08T03:37:05;99760.16;;;-1.46;68.04
73338;BME280;61575;49.908;35.556;2024-03-08T03:40:09;99757.25;;;-1.41;67.83
73338;BME280;61575;49.908;35.556;2024-03-08T03:43:11;99762.44;;;-1.39;68.46
73338;BME280;61575;49.908;35.556;2024-03-08T03:46:13;99752.84;;;-1.40;68.19
73338;BME280;61575;49.908;35.556;2024-03-08T03:49:16;99747.41;;;-1.37;68.39
73338;BME280;61575;49.908;35.556;2024-03-08T03:52:18;99759.34;;;-1.62;68.09
73338;BME280;61575;49.908;35.556;2024-03-08T03:55:20;99760.59;;;-1.53;67.59
73338;BME280;61575;49.908;35.556;2024-03-08T03:58:23;99752.69;;;-1.53;67.03
73338;BME280;61575;49.908;35.556;2024-03-08T04:01:25;99753.63;;;-1.54;67.38
73338;BME280;61575;49.908;35.556;2024-03-08T04:04:27;99751.69;;;-1.51;67.46
73338;BME280;61575;49.908;35.556;2024-03-08T04:07:29;99756.94;;;-1.51;67.41
73338;BME280;61575;49.908;35.556;2024-03-08T04:10:31;99761.09;;;-1.47;67.94
73338;BME280;61575;49.908;35.556;2024-03-08T04:13:33;99749.84;;;-1.64;67.21
73338;BME280;61575;49.908;35.556;2024-03-08T04:16:35;99756.28;;;-1.70;67.53
73338;BME280;61575;49.908;35.556;2024-03-08T04:19:38;99754.34;;;-1.66;67.26
73338;BME280;61575;49.908;35.556;2024-03-08T04:22:41;99756.03;;;-1.65;67.49
73338;BME280;61575;49.908;35.556;2024-03-08T04:25:43;99756.78;;;-1.63;67.14
73338;BME280;61575;49.908;35.556;2024-03-08T04:28:45;99755.28;;;-1.67;66.80
73338;BME280;61575;49.908;35.556;2024-03-08T04:31:48;99762.16;;;-1.65;66.95
73338;BME280;61575;49.908;35.556;2024-03-08T04:34:50;99760.28;;;-1.63;66.90
73338;BME280;61575;49.908;35.556;2024-03-08T04:37:52;99756.53;;;-1.59;66.69
73338;BME280;61575;49.908;35.556;2024-03-08T04:40:54;99758.22;;;-1.58;66.52
73338;BME280;61575;49.908;35.556;2024-03-08T04:43:57;99757.28;;;-1.57;66.38
73338;BME280;61575;49.908;35.556;2024-03-08T04:46:59;99758.94;;;-1.70;66.36
73338;BME280;61575;49.908;35.556;2024-03-08T04:50:02;99751.53;;;-1.63;66.73
73338;BME280;61575;49.908;35.556;2024-03-08T04:53:06;99752.97;;;-1.58;66.81
73338;BME280;61575;49.908;35.556;2024-03-08T04:56:10;99754.66;;;-1.57;66.64
73338;BME280;61575;49.908;35.556;2024-03-08T04:59:12;99752.78;;;-1.55;66.84
73338;BME280;61575;49.908;35.556;2024-03-08T05:02:15;99756.09;;;-1.51;66.58
73338;BME280;61575;49.908;35.556;2024-03-08T05:05:17;99744.66;;;-1.66;66.44
73338;BME280;61575;49.908;35.556;2024-03-08T05:08:19;99748.41;;;-1.70;67.04
73338;BME280;61575;49.908;35.556;2024-03-08T05:11:21;99743.38;;;-1.59;66.91
73338;BME280;61575;49.908;35.556;2024-03-08T05:14:23;99750.56;;;-1.47;66.64
73338;BME280;61575;49.908;35.556;2024-03-08T05:17:26;99747.84;;;-1.45;66.44
73338;BME280;61575;49.908;35.556;2024-03-08T05:20:29;99742.66;;;-1.47;66.09
73338;BME280;61575;49.908;35.556;2024-03-08T05:23:32;99748.09;;;-1.50;66.52
73338;BME280;61575;49.908;35.556;2024-03-08T05:26:36;99752.63;;;-1.52;66.45
73338;BME280;61575;49.908;35.556;2024-03-08T05:29:39;99749.63;;;-1.46;66.13
73338;BME280;61575;49.908;35.556;2024-03-08T05:32:42;99749.75;;;-1.33;66.22
73338;BME280;61575;49.908;35.556;2024-03-08T05:35:46;99746.59;;;-1.24;66.41
73338;BME280;61575;49.908;35.556;2024-03-08T05:38:49;99751.63;;;-1.35;66.10
73338;BME280;61575;49.908;35.556;2024-03-08T05:41:52;99750.25;;;-1.26;65.94
73338;BME280;61575;49.908;35.556;2024-03-08T05:44:54;99748.38;;;-1.24;65.84
73338;BME280;61575;49.908;35.556;2024-03-08T05:47:59;99747.06;;;-1.17;65.61
73338;BME280;61575;49.908;35.556;2024-03-08T05:51:01;99742.75;;;-1.18;65.71
73338;BME280;61575;49.908;35.556;2024-03-08T05:54:05;99742.00;;;-1.20;65.62
73338;BME280;61575;49.908;35.556;2024-03-08T05:57:08;99742.47;;;-1.14;65.52
73338;BME280;61575;49.908;35.556;2024-03-08T06:00:10;99738.16;;;-1.15;65.09
73338;BME280;61575;49.908;35.556;2024-03-08T06:03:13;99740.97;;;-1.18;65.18
73338;BME280;61575;49.908;35.556;2024-03-08T06:06:15;99738.25;;;-1.16;65.23
73338;BME280;61575;49.908;35.556;2024-03-08T06:09:19;99742.94;;;-1.07;65.38
73338;BME280;61575;49.908;35.556;2024-03-08T06:12:26;99734.47;;;-0.98;64.66
73338;BME280;61575;49.908;35.556;2024-03-08T06:15:30;99738.06;;;-0.99;63.63
73338;BME280;61575;49.908;35.556;2024-03-08T06:18:32;99734.28;;;-0.95;64.19
73338;BME280;61575;49.908;35.556;2024-03-08T06:21:34;99731.09;;;-1.00;63.98
73338;BME280;61575;49.908;35.556;2024-03-08T06:24:36;99732.13;;;-0.88;63.93
73338;BME280;61575;49.908;35.556;2024-03-08T06:27:40;99739.13;;;-1.31;64.17
73338;BME280;61575;49.908;35.556;2024-03-08T06:30:42;99730.16;;;-0.99;64.65
73338;BME280;61575;49.908;35.556;2024-03-08T06:33:44;99714.34;;;-0.85;64.09
73338;BME280;61575;49.908;35.556;2024-03-08T06:36:47;99716.22;;;-0.72;64.07
73338;BME280;61575;49.908;35.556;2024-03-08T06:39:49;99721.50;;;-0.58;63.77
73338;BME280;61575;49.908;35.556;2024-03-08T06:42:52;99715.66;;;-0.63;63.26
73338;BME280;61575;49.908;35.556;2024-03-08T06:45:55;99713.31;;;-0.54;63.03
73338;BME280;61575;49.908;35.556;2024-03-08T06:48:57;99710.78;;;-0.69;61.96
73338;BME280;61575;49.908;35.556;2024-03-08T06:51:59;99709.44;;;-0.48;62.34
73338;BME280;61575;49.908;35.556;2024-03-08T06:55:01;99719.06;;;-0.47;62.05
73338;BME280;61575;49.908;35.556;2024-03-08T06:58:07;99716.28;;;-0.17;62.06
73338;BME280;61575;49.908;35.556;2024-03-08T07:01:09;99710.88;;;-0.01;60.99
73338;BME280;61575;49.908;35.556;2024-03-08T07:04:16;99717.06;;;0.12;61.18
73338;BME280;61575;49.908;35.556;2024-03-08T07:07:18;99713.13;;;0.05;60.63
73338;BME280;61575;49.908;35.556;2024-03-08T07:10:22;99718.25;;;0.20;61.18
73338;BME280;61575;49.908;35.556;2024-03-08T07:13:26;99711.56;;;0.42;60.59
73338;BME280;61575;49.908;35.556;2024-03-08T07:16:31;99702.94;;;0.52;59.92
73338;BME280;61575;49.908;35.556;2024-03-08T07:19:33;99712.97;;;0.47;59.34
73338;BME280;61575;49.908;35.556;2024-03-08T07:22:35;99709.00;;;0.67;59.64
73338;BME280;61575;49.908;35.556;2024-03-08T07:25:38;99706.28;;;1.07;58.94
73338;BME280;61575;49.908;35.556;2024-03-08T07:28:41;99714.53;;;1.28;57.51
73338;BME280;61575;49.908;35.556;2024-03-08T07:31:43;99715.53;;;1.76;57.49
73338;BME280;61575;49.908;35.556;2024-03-08T07:35:04;99705.00;;;2.24;55.40
73338;BME280;61575;49.908;35.556;2024-03-08T07:38:07;99712.25;;;2.57;54.86
73338;BME280;61575;49.908;35.556;2024-03-08T07:41:09;99710.34;;;2.59;54.07
73338;BME280;61575;49.908;35.556;2024-03-08T07:44:14;99704.91;;;2.25;54.93
73338;BME280;61575;49.908;35.556;2024-03-08T07:47:16;99707.59;;;2.12;55.19
73338;BME280;61575;49.908;35.556;2024-03-08T07:50:23;99702.34;;;2.00;54.95
73338;BME280;61575;49.908;35.556;2024-03-08T07:53:25;99701.28;;;2.02;54.78
73338;BME280;61575;49.908;35.556;2024-03-08T07:56:27;99704.22;;;2.34;54.55
73338;BME280;61575;49.908;35.556;2024-03-08T07:59:29;99692.63;;;2.94;54.20
73338;BME280;61575;49.908;35.556;2024-03-08T08:02:32;99694.59;;;3.26;53.37
73338;BME280;61575;49.908;35.556;2024-03-08T08:05:39;99687.84;;;3.22;52.65
73338;BME280;61575;49.908;35.556;2024-03-08T08:08:42;99689.13;;;2.94;52.24
73338;BME280;61575;49.908;35.556;2024-03-08T08:11:44;99693.59;;;2.58;51.95
73338;BME280;61575;49.908;35.556;2024-03-08T08:14:46;99681.03;;;2.84;53.28
73338;BME280;61575;49.908;35.556;2024-03-08T08:17:48;99675.81;;;2.83;52.27
73338;BME280;61575;49.908;35.556;2024-03-08T08:20:51;99672.38;;;3.04;52.38
73338;BME280;61575;49.908;35.556;2024-03-08T08:23:54;99663.72;;;3.36;51.95
73338;BME280;61575;49.908;35.556;2024-03-08T08:26:56;99661.31;;;3.44;51.45
73338;BME280;61575;49.908;35.556;2024-03-08T08:29:58;99659.41;;;4.00;50.07
73338;BME280;61575;49.908;35.556;2024-03-08T08:33:01;99659.06;;;3.94;48.71
73338;BME280;61575;49.908;35.556;2024-03-08T08:36:03;99650.72;;;4.30;49.69
73338;BME280;61575;49.908;35.556;2024-03-08T08:39:06;99641.97;;;4.39;48.71
73338;BME280;61575;49.908;35.556;2024-03-08T08:42:14;99639.00;;;4.74;49.24
73338;BME280;61575;49.908;35.556;2024-03-08T08:45:16;99649.78;;;4.73;48.44
73338;BME280;61575;49.908;35.556;2024-03-08T08:48:26;99644.22;;;4.97;48.04
73338;BME280;61575;49.908;35.556;2024-03-08T08:51:30;99646.09;;;5.06;46.55
73338;BME280;61575;49.908;35.556;2024-03-08T08:54:33;99642.78;;;5.44;47.41
73338;BME280;61575;49.908;35.556;2024-03-08T08:57:35;99648.91;;;5.35;47.18
73338;BME280;61575;49.908;35.556;2024-03-08T09:00:37;99639.84;;;5.17;46.54
73338;BME280;61575;49.908;35.556;2024-03-08T09:07:30;99638.91;;;5.27;46.78
73338;BME280;61575;49.908;35.556;2024-03-08T09:10:32;99634.41;;;5.58;46.82
73338;BME280;61575;49.908;35.556;2024-03-08T09:13:35;99630.16;;;4.85;46.33
73338;BME280;61575;49.908;35.556;2024-03-08T09:16:38;99628.94;;;4.78;47.47
73338;BME280;61575;49.908;35.556;2024-03-08T09:19:40;99629.34;;;4.94;47.00
73338;BME280;61575;49.908;35.556;2024-03-08T09:22:45;99622.53;;;5.32;46.87
73338;BME280;61575;49.908;35.556;2024-03-08T09:25:48;99621.72;;;5.41;46.70
73338;BME280;61575;49.908;35.556;2024-03-08T09:28:50;99609.47;;;5.59;46.80
73338;BME280;61575;49.908;35.556;2024-03-08T09:31:52;99603.84;;;5.62;46.02
73338;BME280;61575;49.908;35.556;2024-03-08T09:34:54;99607.53;;;5.81;46.38
73338;BME280;61575;49.908;35.556;2024-03-08T09:37:58;99609.78;;;5.76;45.82
73338;BME280;61575;49.908;35.556;2024-03-08T09:41:00;99610.91;;;5.73;45.02
73338;BME280;61575;49.908;35.556;2024-03-08T09:44:06;99604.22;;;5.98;44.70
73338;BME280;61575;49.908;35.556;2024-03-08T09:47:09;99603.94;;;6.11;44.06
73338;BME280;61575;49.908;35.556;2024-03-08T09:50:15;99608.44;;;6.29;45.31
73338;BME280;61575;49.908;35.556;2024-03-08T09:53:20;99593.84;;;6.33;44.46
73338;BME280;61575;49.908;35.556;2024-03-08T09:56:25;99593.56;;;6.46;43.84
73338;BME280;61575;49.908;35.556;2024-03-08T09:59:29;99589.34;;;6.44;44.67
73338;BME280;61575;49.908;35.556;2024-03-08T10:02:40;99588.06;;;6.38;44.64
73338;BME280;61575;49.908;35.556;2024-03-08T10:05:42;99580.50;;;6.43;43.29
73338;BME280;61575;49.908;35.556;2024-03-08T10:08:46;99567.28;;;6.51;43.51
73338;BME280;61575;49.908;35.556;2024-03-08T10:11:48;99567.41;;;6.59;43.65
73338;BME280;61575;49.908;35.556;2024-03-08T10:14:50;99563.47;;;6.63;43.60
73338;BME280;61575;49.908;35.556;2024-03-08T10:17:55;99555.25;;;6.94;43.89
73338;BME280;61575;49.908;35.556;2024-03-08T10:21:08;99555.91;;;6.59;43.52
73338;BME280;61575;49.908;35.556;2024-03-08T10:24:12;99558.03;;;6.46;43.94
73338;BME280;61575;49.908;35.556;2024-03-08T10:27:16;99554.13;;;6.30;43.90
73338;BME280;61575;49.908;35.556;2024-03-08T10:30:18;99551.41;;;6.50;43.91
73338;BME280;61575;49.908;35.556;2024-03-08T10:33:23;99553.13;;;6.31;43.50
73338;BME280;61575;49.908;35.556;2024-03-08T10:36:28;99544.69;;;6.46;43.42
73338;BME280;61575;49.908;35.556;2024-03-08T10:39:35;99542.03;;;6.46;42.89
73338;BME280;61575;49.908;35.556;2024-03-08T10:42:44;99539.78;;;6.31;43.65
73338;BME280;61575;49.908;35.556;2024-03-08T10:45:54;99536.56;;;6.37;44.16
73338;BME280;61575;49.908;35.556;2024-03-08T10:48:58;99519.28;;;6.42;44.06
73338;BME280;61575;49.908;35.556;2024-03-08T10:52:05;99519.97;;;6.44;44.34
73338;BME280;61575;49.908;35.556;2024-03-08T10:55:11;99518.59;;;6.40;44.24
73338;BME280;61575;49.908;35.556;2024-03-08T10:58:16;99513.00;;;6.23;43.90
73338;BME280;61575;49.908;35.556;2024-03-08T11:01:19;99507.41;;;6.07;43.48
73338;BME280;61575;49.908;35.556;2024-03-08T11:04:21;99500.94;;;6.00;44.11
73338;BME280;61575;49.908;35.556;2024-03-08T11:07:25;99501.50;;;5.94;44.22
73338;BME280;61575;49.908;35.556;2024-03-08T11:10:29;99499.97;;;6.11;44.03
73338;BME280;61575;49.908;35.556;2024-03-08T11:13:35;99489.72;;;6.06;42.91
73338;BME280;61575;49.908;35.556;2024-03-08T11:16:39;99484.38;;;6.16;43.40
73338;BME280;61575;49.908;35.556;2024-03-08T11:19:46;99479.59;;;6.19;43.96
73338;BME280;61575;49.908;35.556;2024-03-08T11:22:54;99483.94;;;6.20;43.67
73338;BME280;61575;49.908;35.556;2024-03-08T11:25:56;99468.97;;;6.00;43.35
73338;BME280;61575;49.908;35.556;2024-03-08T11:32:29;99479.34;;;5.84;43.45
73338;BME280;61575;49.908;35.556;2024-03-08T11:35:33;99473.31;;;6.01;43.54
73338;BME280;61575;49.908;35.556;2024-03-08T11:38:40;99461.69;;;5.83;44.37
73338;BME280;61575;49.908;35.556;2024-03-08T11:41:43;99459.16;;;5.91;44.89
73338;BME280;61575;49.908;35.556;2024-03-08T11:44:47;99462.50;;;5.93;45.10
73338;BME280;61575;49.908;35.556;2024-03-08T11:47:50;99459.97;;;6.01;44.94
73338;BME280;61575;49.908;35.556;2024-03-08T11:51:01;99449.47;;;5.99;43.81
73338;BME280;61575;49.908;35.556;2024-03-08T11:54:03;99453.13;;;5.89;44.03
73338;BME280;61575;49.908;35.556;2024-03-08T11:57:06;99453.41;;;5.95;42.88
73338;BME280;61575;49.908;35.556;2024-03-08T12:00:15;99445.13;;;5.69;43.75
73338;BME280;61575;49.908;35.556;2024-03-08T12:03:24;99445.69;;;5.92;44.21
73338;BME280;61575;49.908;35.556;2024-03-08T12:06:27;99446.78;;;6.09;43.83
73338;BME280;61575;49.908;35.556;2024-03-08T12:09:42;99434.56;;;6.16;43.50
73338;BME280;61575;49.908;35.556;2024-03-08T12:12:49;99439.78;;;5.98;43.68
73338;BME280;61575;49.908;35.556;2024-03-08T12:15:53;99436.69;;;6.03;43.94
73338;BME280;61575;49.908;35.556;2024-03-08T12:18:55;99430.09;;;6.07;43.83
73338;BME280;61575;49.908;35.556;2024-03-08T12:22:07;99428.25;;;6.17;43.71
73338;BME280;61575;49.908;35.556;2024-03-08T12:25:13;99430.25;;;5.96;43.20
73338;BME280;61575;49.908;35.556;2024-03-08T12:28:15;99418.03;;;6.03;43.10
73338;BME280;61575;49.908;35.556;2024-03-08T12:31:21;99415.59;;;6.19;42.75
73338;BME280;61575;49.908;35.556;2024-03-08T12:34:24;99406.09;;;6.07;42.74
73338;BME280;61575;49.908;35.556;2024-03-08T12:37:26;99401.72;;;6.16;42.80
73338;BME280;61575;49.908;35.556;2024-03-08T12:40:30;99404.13;;;6.09;42.18
73338;BME280;61575;49.908;35.556;2024-03-08T12:43:34;99401.63;;;5.98;42.61
73338;BME280;61575;49.908;35.556;2024-03-08T12:46:37;99387.88;;;6.02;42.08
73338;BME280;61575;49.908;35.556;2024-03-08T12:49:42;99398.50;;;6.12;42.36
73338;BME280;61575;49.908;35.556;2024-03-08T12:52:44;99385.19;;;6.02;42.43
73338;BME280;61575;49.908;35.556;2024-03-08T12:55:46;99380.66;;;6.22;42.23
73338;BME280;61575;49.908;35.556;2024-03-08T12:58:48;99369.66;;;6.35;42.50
73338;BME280;61575;49.908;35.556;2024-03-08T13:01:50;99363.03;;;6.39;42.39
73338;BME280;61575;49.908;35.556;2024-03-08T13:04:54;99367.84;;;6.35;42.13
73338;BME280;61575;49.908;35.556;2024-03-08T13:08:02;99372.38;;;6.25;42.25
73338;BME280;61575;49.908;35.556;2024-03-08T13:11:05;99372.94;;;6.19;42.86
73338;BME280;61575;49.908;35.556;2024-03-08T13:14:09;99369.06;;;6.04;42.84
73338;BME280;61575;49.908;35.556;2024-03-08T13:17:13;99368.44;;;5.73;41.62
73338;BME280;61575;49.908;35.556;2024-03-08T13:20:15;99360.81;;;5.88;42.76
73338;BME280;61575;49.908;35.556;2024-03-08T13:23:32;99351.88;;;5.69;42.86
73338;BME280;61575;49.908;35.556;2024-03-08T13:26:35;99354.41;;;5.71;43.69
73338;BME280;61575;49.908;35.556;2024-03-08T13:29:37;99348.78;;;5.74;43.77
73338;BME280;61575;49.908;35.556;2024-03-08T13:32:40;99346.84;;;5.66;43.69
73338;BME280;61575;49.908;35.556;2024-03-08T13:35:45;99353.16;;;5.65;43.58
73338;BME280;61575;49.908;35.556;2024-03-08T13:38:52;99345.88;;;5.67;43.18
73338;BME280;61575;49.908;35.556;2024-03-08T13:41:55;99342.94;;;5.61;43.51
73338;BME280;61575;49.908;35.556;2024-03-08T13:44:57;99340.97;;;5.63;43.78
73338;BME280;61575;49.908;35.556;2024-03-08T13:47:59;99347.69;;;5.57;43.81
73338;BME280;61575;49.908;35.556;2024-03-08T13:51:01;99347.28;;;5.43;44.11
73338;BME280;61575;49.908;35.556;2024-03-08T13:54:03;99339.88;;;5.27;43.85
73338;BME280;61575;49.908;35.556;2024-03-08T13:57:08;99337.50;;;5.33;44.10
73338;BME280;61575;49.908;35.556;2024-03-08T14:00:12;99330.19;;;5.35;44.53
73338;BME280;61575;49.908;35.556;2024-03-08T14:03:14;99329.38;;;5.25;44.42
73338;BME280;61575;49.908;35.556;2024-03-08T14:06:16;99331.03;;;5.07;44.23
73338;BME280;61575;49.908;35.556;2024-03-08T14:09:24;99321.09;;;5.09;44.66
73338;BME280;61575;49.908;35.556;2024-03-08T14:12:26;99331.72;;;4.90;44.75
73338;BME280;61575;49.908;35.556;2024-03-08T14:15:31;99319.97;;;4.92;44.50
73338;BME280;61575;49.908;35.556;2024-03-08T14:18:33;99319.97;;;5.02;44.88
73338;BME280;61575;49.908;35.556;2024-03-08T14:21:36;99322.66;;;5.12;44.67
73338;BME280;61575;49.908;35.556;2024-03-08T14:24:41;99316.47;;;5.21;44.70
73338;BME280;61575;49.908;35.556;2024-03-08T14:27:45;99317.88;;;5.25;44.53
73338;BME280;61575;49.908;35.556;2024-03-08T14:30:47;99327.00;;;5.22;44.19
73338;BME280;61575;49.908;35.556;2024-03-08T14:33:51;99323.19;;;5.25;44.60
73338;BME280;61575;49.908;35.556;2024-03-08T14:36:53;99315.22;;;5.15;44.48
73338;BME280;61575;49.908;35.556;2024-03-08T14:39:55;99315.91;;;5.27;44.49
73338;BME280;61575;49.908;35.556;2024-03-08T14:42:58;99306.66;;;5.31;44.35
73338;BME280;61575;49.908;35.556;2024-03-08T14:46:01;99313.94;;;5.38;44.68
73338;BME280;61575;49.908;35.556;2024-03-08T14:49:05;99312.13;;;5.39;43.77
73338;BME280;61575;49.908;35.556;2024-03-08T14:52:07;99309.69;;;5.65;43.70
73338;BME280;61575;49.908;35.556;2024-03-08T14:55:29;99300.69;;;5.76;43.36
73338;BME280;61575;49.908;35.556;2024-03-08T14:58:32;99301.88;;;5.54;43.20
73338;BME280;61575;49.908;35.556;2024-03-08T15:01:35;99307.06;;;5.55;43.26
73338;BME280;61575;49.908;35.556;2024-03-08T15:04:40;99302.44;;;5.38;43.46
73338;BME280;61575;49.908;35.556;2024-03-08T15:07:42;99309.47;;;5.29;43.83
73338;BME280;61575;49.908;35.556;2024-03-08T15:10:46;99296.59;;;4.96;44.08
73338;BME280;61575;49.908;35.556;2024-03-08T15:13:49;99298.22;;;4.68;44.51
73338;BME280;61575;49.908;35.556;2024-03-08T15:16:55;99303.75;;;4.46;44.78
73338;BME280;61575;49.908;35.556;2024-03-08T15:19:57;99297.28;;;4.29;45.25
73338;BME280;61575;49.908;35.556;2024-03-08T15:22:59;99316.53;;;4.11;45.63
73338;BME280;61575;49.908;35.556;2024-03-08T15:26:02;99309.34;;;3.93;46.24
73338;BME280;61575;49.908;35.556;2024-03-08T15:29:05;99307.34;;;3.85;46.27
73338;BME280;61575;49.908;35.556;2024-03-08T15:32:07;99310.88;;;3.65;46.54
73338;BME280;61575;49.908;35.556;2024-03-08T15:35:11;99310.09;;;3.53;46.79
73338;BME280;61575;49.908;35.556;2024-03-08T15:38:15;99304.75;;;3.43;46.86
73338;BME280;61575;49.908;35.556;2024-03-08T15:41:17;99311.09;;;3.31;47.02
73338;BME280;61575;49.908;35.556;2024-03-08T15:44:19;99308.50;;;3.20;47.26
73338;BME280;61575;49.908;35.556;2024-03-08T15:47:22;99306.72;;;3.09;47.47
73338;BME280;61575;49.908;35.556;2024-03-08T15:50:24;99313.06;;;2.97;47.88
73338;BME280;61575;49.908;35.556;2024-03-08T15:53:26;99308.03;;;2.83;48.04
73338;BME280;61575;49.908;35.556;2024-03-08T15:56:28;99308.78;;;2.74;48.12
73338;BME280;61575;49.908;35.556;2024-03-08T15:59:30;99305.34;;;2.62;48.75
73338;BME280;61575;49.908;35.556;2024-03-08T16:02:39;99307.91;;;2.53;48.90
73338;BME280;61575;49.908;35.556;2024-03-08T16:05:42;99308.63;;;2.43;49.14
73338;BME280;61575;49.908;35.556;2024-03-08T16:08:48;99310.09;;;2.25;49.46
73338;BME280;61575;49.908;35.556;2024-03-08T16:11:50;99309.28;;;2.13;49.60